createdAt,value
2024-01-11T00:01:37.127Z,111.82
2024-01-11T00:04:07.072Z,120.88
2024-01-11T00:06:35.482Z,118.30
2024-01-11T00:09:04.899Z,114.20
2024-01-11T00:11:33.841Z,106.63
2024-01-11T00:14:02.793Z,121.80
2024-01-11T00:16:32.046Z,117.47
2024-01-11T00:19:01.579Z,109.45
2024-01-11T00:21:32.375Z,112.45
2024-01-11T00:24:01.237Z,125.50
2024-01-11T00:26:30.124Z,117.97
2024-01-11T00:28:58.977Z,119.75
2024-01-11T00:31:28.713Z,125.97
2024-01-11T00:33:57.954Z,125.15
2024-01-11T00:36:26.939Z,136.13
2024-01-11T00:38:59.563Z,133.25
2024-01-11T00:41:28.866Z,137.23
2024-01-11T00:43:57.840Z,139.68
2024-01-11T00:46:26.881Z,143.15
2024-01-11T00:48:57.444Z,149.82
2024-01-11T00:51:26.924Z,134.57
2024-01-11T00:53:55.717Z,134.00
2024-01-11T00:56:26.023Z,125.68
2024-01-11T00:58:55.500Z,126.65
2024-01-11T01:01:24.435Z,133.00
2024-01-11T01:03:53.189Z,122.68
2024-01-11T01:06:22.062Z,127.68
2024-01-11T01:08:50.912Z,132.27
2024-01-11T01:11:19.795Z,119.55
2024-01-11T01:13:49.884Z,136.32
2024-01-11T01:16:19.179Z,137.30
2024-01-11T01:18:48.332Z,138.10
2024-01-11T01:21:17.279Z,124.85
2024-01-11T01:23:46.158Z,144.73
2024-01-11T01:26:17.484Z,136.07
2024-01-11T02:01:51.172Z,110.75
2024-01-11T02:04:20.227Z,125.75
2024-01-11T02:06:49.918Z,119.47
2024-01-11T02:09:23.243Z,128.70
2024-01-11T02:11:54.536Z,106.25
2024-01-11T02:14:23.429Z,108.03
2024-01-11T02:16:54.786Z,96.00
2024-01-11T02:19:26.900Z,93.53
2024-01-11T02:21:57.903Z,97.72
2024-01-11T02:24:28.374Z,93.43
2024-01-11T02:27:04.344Z,84.45
2024-01-11T02:29:34.079Z,89.10
2024-01-11T02:32:05.936Z,86.28
2024-01-11T02:34:35.762Z,80.28
2024-01-11T02:37:05.128Z,82.30
2024-01-11T02:39:36.238Z,77.47
2024-01-11T02:42:08.559Z,78.40
2024-01-11T02:44:38.362Z,67.68
2024-01-11T02:47:10.579Z,71.85
2024-01-11T02:49:39.476Z,61.35
2024-01-11T02:52:08.327Z,79.28
2024-01-11T02:54:38.613Z,67.25
2024-01-11T02:57:07.732Z,69.32
2024-01-11T03:12:22.670Z,60.75
2024-01-11T03:15:04.518Z,54.38
2024-01-11T03:17:38.618Z,60.03
2024-01-11T03:20:09.654Z,72.15
2024-01-11T03:26:33.868Z,63.03
2024-01-11T03:29:51.441Z,57.83
2024-01-11T03:33:13.603Z,65.82
2024-01-11T03:50:48.169Z,66.65
2024-01-11T04:04:30.213Z,67.63
2024-01-11T04:11:54.010Z,51.25
2024-01-11T04:15:47.366Z,61.28
2024-01-11T04:21:24.623Z,60.20
2024-01-11T04:26:21.597Z,56.05
2024-01-11T04:28:52.431Z,55.90
2024-01-11T04:31:22.223Z,62.60
2024-01-11T04:33:50.628Z,63.00
2024-01-11T04:36:19.035Z,59.17
2024-01-11T04:38:47.610Z,65.68
2024-01-11T04:41:17.039Z,58.72
2024-01-11T04:43:46.592Z,68.30
2024-01-11T04:46:19.254Z,71.53
2024-01-11T04:51:20.229Z,61.00
2024-01-11T04:53:49.084Z,56.30
2024-01-11T04:56:18.744Z,62.30
2024-01-11T04:58:47.848Z,65.80
2024-01-11T05:01:17.140Z,65.50
2024-01-11T05:03:46.747Z,76.38
2024-01-11T05:06:19.513Z,62.25
2024-01-11T05:08:49.052Z,67.72
2024-01-11T05:11:19.638Z,69.88
2024-01-11T05:13:49.535Z,58.47
2024-01-11T05:16:21.462Z,62.53
2024-01-11T05:18:49.917Z,65.50
2024-01-11T05:21:19.880Z,56.28
2024-01-11T05:23:48.389Z,66.72
2024-01-11T05:26:17.911Z,86.25
2024-01-11T05:28:46.334Z,107.05
2024-01-11T05:31:17.720Z,111.97
2024-01-11T05:33:47.289Z,101.03
2024-01-11T05:36:15.693Z,91.78
2024-01-11T05:38:45.403Z,99.50
2024-01-11T05:41:13.883Z,105.28
2024-01-11T05:43:43.876Z,93.03
2024-01-11T05:46:12.459Z,96.20
2024-01-11T05:48:41.150Z,92.95
2024-01-11T05:51:10.749Z,94.82
2024-01-11T05:53:39.731Z,89.75
2024-01-11T05:56:13.276Z,89.90
2024-01-11T05:58:42.105Z,105.22
2024-01-11T06:01:10.921Z,98.05
2024-01-11T06:03:40.697Z,88.38
2024-01-11T06:06:10.600Z,104.88
2024-01-11T06:08:39.841Z,106.97
2024-01-11T06:11:09.980Z,104.90
2024-01-11T06:13:42.596Z,107.57
2024-01-11T06:16:14.023Z,116.20
2024-01-11T06:18:42.956Z,114.93
2024-01-11T06:21:12.027Z,111.35
2024-01-11T06:23:40.903Z,121.53
2024-01-11T06:26:13.133Z,122.88
2024-01-11T06:28:43.578Z,116.57
2024-01-11T06:31:13.497Z,110.65
2024-01-11T06:50:29.511Z,105.55
2024-01-11T06:53:18.020Z,81.82
2024-01-11T06:56:03.059Z,102.57
2024-01-11T06:58:52.237Z,96.97
2024-01-11T07:01:34.678Z,86.30
2024-01-11T07:04:37.483Z,109.82
2024-01-11T07:07:11.568Z,88.85
2024-01-11T07:09:43.108Z,93.15
2024-01-11T07:12:17.629Z,89.43
2024-01-11T07:14:55.322Z,79.10
2024-01-11T07:17:30.782Z,86.53
2024-01-11T07:20:00.832Z,89.03
2024-01-11T07:22:32.765Z,96.60
2024-01-11T07:25:12.306Z,133.77
2024-01-11T07:27:42.447Z,122.75
2024-01-11T07:30:16.555Z,94.35
2024-01-11T07:32:48.790Z,77.05
2024-01-11T07:35:19.531Z,83.63
2024-01-11T07:37:49.086Z,76.55
2024-01-11T07:40:46.792Z,92.65
2024-01-11T07:43:17.463Z,102.25
2024-01-11T07:45:47.671Z,93.47
2024-01-11T07:51:29.429Z,110.00
2024-01-11T07:53:57.805Z,91.82
2024-01-11T07:56:27.960Z,84.07
2024-01-11T07:58:56.490Z,70.38
2024-01-11T08:01:25.034Z,71.18
2024-01-11T08:03:54.364Z,68.05
2024-01-11T08:06:22.924Z,74.50
2024-01-11T08:08:53.690Z,67.93
2024-01-11T08:11:22.638Z,76.65
2024-01-11T08:13:54.674Z,80.05
2024-01-11T08:16:23.577Z,62.42
2024-01-11T08:18:53.089Z,65.55
2024-01-11T08:21:21.618Z,72.13
2024-01-11T08:23:59.344Z,70.57
2024-01-11T08:26:31.521Z,74.18
2024-01-11T08:29:02.037Z,81.22
2024-01-11T08:31:30.918Z,75.53
2024-01-11T08:34:00.017Z,73.35
2024-01-11T08:36:35.573Z,80.35
2024-01-11T08:39:06.871Z,56.53
2024-01-11T08:41:36.665Z,60.38
2024-01-11T08:44:07.885Z,85.15
2024-01-11T08:46:36.863Z,75.13
2024-01-11T08:49:05.923Z,65.93
2024-01-11T08:51:35.074Z,79.90
2024-01-11T08:54:05.533Z,81.95
2024-01-11T08:56:34.557Z,86.63
2024-01-11T08:59:03.263Z,70.00
2024-01-11T09:01:36.716Z,77.03
2024-01-11T09:04:05.906Z,72.53
2024-01-11T09:06:37.364Z,89.95
2024-01-11T09:09:11.274Z,77.20
2024-01-11T09:11:40.290Z,106.50
2024-01-11T09:14:12.513Z,85.45
2024-01-11T09:16:42.966Z,53.42
2024-01-11T09:19:12.107Z,76.63
2024-01-11T09:21:41.212Z,88.47
2024-01-11T09:24:10.223Z,76.22
2024-01-11T09:26:39.178Z,63.58
2024-01-11T09:29:08.169Z,47.25
2024-01-11T09:31:37.137Z,35.13
2024-01-11T09:34:10.248Z,30.25
2024-01-11T09:36:40.059Z,33.05
2024-01-11T09:39:09.542Z,34.75
2024-01-11T09:41:40.705Z,35.22
2024-01-11T09:44:10.322Z,26.38
2024-01-11T09:46:39.799Z,20.25
2024-01-11T09:49:14.666Z,28.05
2024-01-11T09:51:45.747Z,28.23
2024-01-11T09:54:16.254Z,27.52
2024-01-11T09:56:45.993Z,24.33
2024-01-11T09:59:15.379Z,25.08
2024-01-11T10:01:44.508Z,24.42
2024-01-11T10:04:17.570Z,17.83
2024-01-11T10:06:52.233Z,23.58
2024-01-11T10:09:21.427Z,22.67
2024-01-11T10:11:50.534Z,24.52
2024-01-11T10:14:19.327Z,25.08
2024-01-11T10:16:47.814Z,25.05
2024-01-11T10:19:23.500Z,19.40
2024-01-11T10:21:52.384Z,26.15
2024-01-11T10:24:22.103Z,23.85
2024-01-11T10:26:52.328Z,21.27
2024-01-11T10:29:21.453Z,26.85
2024-01-11T10:31:49.925Z,21.77
2024-01-11T10:34:19.926Z,22.10
2024-01-11T10:36:48.709Z,20.05
2024-01-11T10:39:19.116Z,26.80
2024-01-11T10:41:52.480Z,21.60
2024-01-11T10:44:22.993Z,24.13
2024-01-11T10:46:52.698Z,22.63
2024-01-11T10:49:25.577Z,21.05
2024-01-11T10:52:02.771Z,22.50
2024-01-11T10:54:32.364Z,23.95
2024-01-11T10:57:02.362Z,24.00
2024-01-11T10:59:34.828Z,27.52
2024-01-11T11:02:13.729Z,23.13
2024-01-11T11:04:45.639Z,23.45
2024-01-11T11:07:14.806Z,23.55
2024-01-11T11:09:46.913Z,40.92
2024-01-11T11:12:16.577Z,23.10
2024-01-11T11:14:46.451Z,19.35
2024-01-11T11:17:18.099Z,23.80
2024-01-11T11:19:48.386Z,27.17
2024-01-11T11:22:17.821Z,29.70
2024-01-11T11:24:46.881Z,24.83
2024-01-11T11:27:17.002Z,26.42
2024-01-11T11:29:50.741Z,20.45
2024-01-11T11:32:19.436Z,27.70
2024-01-11T11:34:51.048Z,27.45
2024-01-11T11:37:26.026Z,33.50
2024-01-11T11:39:54.936Z,27.10
2024-01-11T11:42:26.007Z,28.15
2024-01-11T11:45:01.783Z,23.85
2024-01-11T11:47:38.765Z,24.00
2024-01-11T11:50:11.086Z,23.77
2024-01-11T11:52:43.374Z,24.58
2024-01-11T11:55:12.543Z,22.50
2024-01-11T11:57:41.326Z,22.25
2024-01-11T12:00:12.547Z,41.03
2024-01-11T12:02:42.132Z,20.95
2024-01-11T12:05:12.976Z,20.58
2024-01-11T12:07:41.998Z,23.58
2024-01-11T12:10:11.104Z,32.67
2024-01-11T12:12:41.325Z,34.13
2024-01-11T12:15:11.158Z,29.77
2024-01-11T12:17:44.042Z,28.95
2024-01-11T12:20:15.877Z,34.33
2024-01-11T12:22:45.117Z,22.40
2024-01-11T12:25:14.226Z,24.13
2024-01-11T12:27:43.301Z,28.70
2024-01-11T12:30:16.030Z,26.38
2024-01-11T12:35:15.306Z,23.00
2024-01-11T12:37:44.343Z,20.65
2024-01-11T12:40:15.816Z,20.27
2024-01-11T12:42:45.612Z,18.65
2024-01-11T12:45:15.647Z,21.83
2024-01-11T12:47:44.782Z,17.85
2024-01-11T12:50:15.919Z,18.25
2024-01-11T12:52:45.372Z,21.10
2024-01-11T12:55:22.173Z,21.15
2024-01-11T12:57:51.469Z,23.27
2024-01-11T13:00:21.107Z,21.80
2024-01-11T13:02:52.396Z,23.90
2024-01-11T13:05:23.034Z,26.55
2024-01-11T13:07:51.874Z,38.10
2024-01-11T13:10:21.619Z,39.33
2024-01-11T13:12:56.756Z,49.22
2024-01-11T13:15:30.405Z,34.95
2024-01-11T13:18:00.002Z,43.28
2024-01-11T13:20:31.394Z,57.22
2024-01-11T13:23:16.225Z,58.28
2024-01-11T13:25:46.755Z,28.23
2024-01-11T13:28:16.624Z,26.75
2024-01-11T13:30:46.744Z,145.98
2024-01-11T13:33:18.322Z,55.78
2024-01-11T13:35:49.298Z,36.05
2024-01-11T13:38:24.332Z,32.78
2024-01-11T13:40:54.601Z,27.63
2024-01-11T13:43:23.956Z,33.67
2024-01-11T13:45:52.927Z,35.47
2024-01-11T13:48:21.923Z,29.52
2024-01-11T13:50:52.198Z,25.73
2024-01-11T13:53:21.363Z,31.85
2024-01-11T13:55:50.501Z,29.77
2024-01-11T13:58:20.343Z,27.80
2024-01-11T14:00:49.228Z,27.10
2024-01-11T14:03:18.948Z,24.80
2024-01-11T14:05:49.123Z,30.10
2024-01-11T14:08:19.841Z,28.30
2024-01-11T14:10:49.275Z,35.88
2024-01-11T14:13:17.800Z,26.83
2024-01-11T14:15:49.362Z,31.70
2024-01-11T14:18:18.648Z,26.60
2024-01-11T14:20:47.318Z,26.73
2024-01-11T14:23:16.137Z,32.95
2024-01-11T14:25:46.619Z,28.35
2024-01-11T14:28:15.411Z,23.85
2024-01-11T14:30:45.793Z,26.33
2024-01-11T14:33:14.522Z,21.02
2024-01-11T14:35:44.082Z,22.48
2024-01-11T14:38:12.814Z,23.65
2024-01-11T14:40:42.898Z,31.65
2024-01-11T14:43:13.293Z,27.55
2024-01-11T14:45:42.550Z,33.50
2024-01-11T14:48:13.525Z,26.83
2024-01-11T14:50:42.861Z,24.77
2024-01-11T14:53:11.820Z,25.65
2024-01-11T14:55:40.515Z,32.40
2024-01-11T14:58:10.363Z,46.70
2024-01-11T15:00:40.655Z,30.60
2024-01-11T15:03:09.136Z,29.50
2024-01-11T15:05:38.127Z,31.60
2024-01-11T15:08:07.038Z,39.88
2024-01-11T15:10:36.129Z,48.13
2024-01-11T15:13:04.526Z,45.83
2024-01-11T15:15:33.363Z,26.77
2024-01-11T15:18:03.279Z,28.00
2024-01-11T15:20:32.498Z,17.65
2024-01-11T15:23:01.361Z,21.88
2024-01-11T15:25:29.921Z,31.98
2024-01-11T15:27:58.723Z,24.30
2024-01-11T15:30:28.157Z,41.85
2024-01-11T15:33:00.791Z,33.22
2024-01-11T15:35:32.591Z,31.63
2024-01-11T15:38:01.309Z,31.83
2024-01-11T15:40:29.953Z,30.80
2024-01-11T15:42:59.097Z,27.05
2024-01-11T15:45:27.994Z,53.17
2024-01-11T15:47:56.842Z,79.18
2024-01-11T15:50:26.242Z,62.58
2024-01-11T15:52:56.088Z,47.72
2024-01-11T15:55:25.116Z,29.55
2024-01-11T15:57:56.758Z,24.98
2024-01-11T16:00:26.096Z,31.30
2024-01-11T16:02:57.185Z,25.08
2024-01-11T16:05:26.792Z,35.40
2024-01-11T16:07:56.722Z,31.40
2024-01-11T16:10:25.397Z,22.90
2024-01-11T16:12:54.162Z,38.08
2024-01-11T16:15:23.093Z,36.47
2024-01-11T16:17:51.526Z,33.17
2024-01-11T16:20:20.393Z,43.95
2024-01-11T16:22:49.393Z,40.55
2024-01-11T16:25:19.226Z,36.75
2024-01-11T16:27:48.144Z,48.70
2024-01-11T16:30:17.050Z,37.78
2024-01-11T16:32:45.485Z,33.03
2024-01-11T16:35:14.371Z,37.53
2024-01-11T16:37:42.754Z,48.60
2024-01-11T16:40:14.246Z,84.40
2024-01-11T16:42:44.290Z,106.25
2024-01-11T16:45:13.127Z,67.43
2024-01-11T16:47:41.600Z,54.15
2024-01-11T16:50:10.700Z,86.32
2024-01-11T16:52:39.380Z,82.35
2024-01-11T16:55:09.152Z,79.32
2024-01-11T16:57:37.532Z,66.95
2024-01-11T17:00:08.809Z,65.80
2024-01-11T17:02:37.471Z,57.35
2024-01-11T17:05:06.803Z,107.43
2024-01-11T17:07:35.815Z,58.78
2024-01-11T17:10:04.809Z,90.05
2024-01-11T17:12:33.586Z,56.83
2024-01-11T17:15:02.321Z,54.78
2024-01-11T17:17:32.312Z,63.47
2024-01-11T17:20:00.719Z,52.92
2024-01-11T17:22:29.453Z,50.15
2024-01-11T17:24:58.974Z,47.35
2024-01-11T17:27:27.350Z,55.60
2024-01-11T17:29:55.751Z,47.90
2024-01-11T17:32:24.307Z,53.30
2024-01-11T17:34:54.465Z,61.20
2024-01-11T17:37:23.014Z,49.65
2024-01-11T17:39:52.001Z,40.38
2024-01-11T17:42:20.642Z,48.63
2024-01-11T17:44:48.274Z,44.53
2024-01-11T17:47:16.859Z,63.97
2024-01-11T17:49:45.402Z,95.75
2024-01-11T17:52:15.340Z,51.17
2024-01-11T17:54:43.792Z,71.88
2024-01-11T17:57:12.184Z,47.35
2024-01-11T17:59:40.592Z,42.38
2024-01-11T18:02:09.035Z,48.85
2024-01-11T18:04:37.850Z,41.30
2024-01-11T18:07:06.775Z,39.75
2024-01-11T18:09:38.154Z,43.58
2024-01-11T18:12:08.475Z,44.15
2024-01-11T18:14:36.956Z,45.15
2024-01-11T18:17:05.545Z,47.03
2024-01-11T18:19:34.379Z,54.17
2024-01-11T18:22:02.849Z,52.63
2024-01-11T18:24:32.319Z,48.28
2024-01-11T18:27:02.444Z,42.97
2024-01-11T18:29:31.111Z,43.05
2024-01-11T18:31:59.441Z,52.45
2024-01-11T18:34:27.806Z,73.47
2024-01-11T18:36:56.296Z,130.68
2024-01-11T18:39:25.081Z,124.97
2024-01-11T18:41:53.878Z,65.25
2024-01-11T18:44:25.435Z,53.60
2024-01-11T18:46:53.940Z,50.03
2024-01-11T18:49:22.398Z,51.33
2024-01-11T18:51:50.840Z,52.15
2024-01-11T18:54:19.570Z,55.47
2024-01-11T18:56:48.077Z,48.97
2024-01-11T18:59:17.794Z,46.35
2024-01-11T19:01:49.363Z,44.83
2024-01-11T19:04:18.018Z,44.88
2024-01-11T19:06:47.155Z,44.60
2024-01-11T19:09:17.157Z,50.15
2024-01-11T19:11:46.108Z,41.20
2024-01-11T19:14:15.827Z,40.63
2024-01-11T19:16:44.243Z,37.13
2024-01-11T19:19:14.105Z,40.30
2024-01-11T19:21:42.813Z,74.32
2024-01-11T19:24:11.804Z,73.38
2024-01-11T19:26:43.198Z,83.47
2024-01-11T19:29:11.918Z,68.47
2024-01-11T19:31:40.602Z,45.08
2024-01-11T19:34:09.240Z,45.55
2024-01-11T19:36:42.700Z,34.30
2024-01-11T19:39:11.597Z,59.03
2024-01-11T19:41:40.913Z,91.40
2024-01-11T19:44:10.308Z,64.47
2024-01-11T19:46:39.683Z,68.68
2024-01-11T19:49:08.336Z,50.65
2024-01-11T19:51:37.019Z,48.75
2024-01-11T19:54:07.064Z,97.63
2024-01-11T19:56:35.398Z,125.68
2024-01-11T19:59:04.702Z,70.38
2024-01-11T20:01:33.410Z,99.82
2024-01-11T20:04:01.956Z,98.20
2024-01-11T20:06:30.473Z,95.88
2024-01-11T20:08:59.168Z,127.72
2024-01-11T20:11:29.103Z,78.70
2024-01-11T20:13:57.484Z,47.28
2024-01-11T20:16:26.100Z,38.35
2024-01-11T20:18:54.706Z,40.65
2024-01-11T20:21:26.505Z,39.00
2024-01-11T20:23:55.526Z,35.90
2024-01-11T20:26:26.886Z,33.08
2024-01-11T20:28:57.424Z,38.00
2024-01-11T20:31:35.101Z,53.35
2024-01-11T20:34:04.090Z,51.13
2024-01-11T20:36:33.094Z,39.60
2024-01-11T20:39:02.041Z,39.22
2024-01-11T20:41:31.688Z,51.83
2024-01-11T20:44:03.219Z,43.58
2024-01-11T20:46:32.619Z,42.28
2024-01-11T20:49:01.701Z,40.95
2024-01-11T20:51:31.180Z,38.03
2024-01-11T20:54:02.890Z,31.35
2024-01-11T20:56:33.926Z,35.35
2024-01-11T20:59:04.319Z,32.88
2024-01-11T21:01:33.821Z,29.88
2024-01-11T21:04:02.879Z,31.90
2024-01-11T21:06:31.939Z,31.83
2024-01-11T21:09:04.268Z,34.65
2024-01-11T21:11:33.558Z,31.20
2024-01-11T21:14:03.853Z,30.58
2024-01-11T21:16:32.976Z,31.30
2024-01-11T21:19:06.128Z,31.50
2024-01-11T21:21:35.069Z,35.15
2024-01-11T21:24:05.939Z,27.90
2024-01-11T21:26:34.352Z,28.35
2024-01-11T21:29:04.391Z,28.73
2024-01-11T21:31:33.925Z,29.15
2024-01-11T21:34:05.252Z,27.85
2024-01-11T21:36:36.363Z,34.08
2024-01-11T21:39:05.641Z,29.00
2024-01-11T21:41:34.941Z,29.75
2024-01-11T21:44:05.189Z,24.40
2024-01-11T21:46:34.879Z,28.00
2024-01-11T21:49:05.390Z,20.60
2024-01-11T21:51:34.262Z,23.30
2024-01-11T21:54:03.332Z,23.48
2024-01-11T21:56:32.159Z,25.33
2024-01-11T21:59:00.870Z,22.58
2024-01-11T22:01:31.097Z,33.42
2024-01-11T22:04:00.877Z,23.70
2024-01-11T22:06:31.764Z,37.22
2024-01-11T22:09:00.828Z,26.20
2024-01-11T22:11:32.058Z,35.65
2024-01-11T22:14:01.193Z,44.58
2024-01-11T22:16:32.020Z,52.55
2024-01-11T22:19:01.384Z,34.53
2024-01-11T22:21:30.724Z,31.85
2024-01-11T22:23:59.508Z,28.65
2024-01-11T22:26:30.065Z,29.80
2024-01-11T22:28:58.515Z,31.25
2024-01-11T22:31:32.801Z,26.98
2024-01-11T22:34:03.030Z,35.47
2024-01-11T22:36:31.897Z,28.33
2024-01-11T22:39:00.699Z,34.30
2024-01-11T22:41:30.786Z,35.63
2024-01-11T22:44:00.322Z,28.55
2024-01-11T22:46:28.788Z,27.88
2024-01-11T22:48:57.250Z,29.08
2024-01-11T22:51:27.071Z,33.00
2024-01-11T22:53:55.461Z,34.42
2024-01-11T22:56:25.100Z,34.38
2024-01-11T22:58:54.299Z,30.02
2024-01-11T23:01:22.816Z,33.58
2024-01-11T23:03:51.351Z,42.47
2024-01-11T23:06:20.092Z,38.10
2024-01-11T23:08:49.924Z,37.97
2024-01-11T23:11:18.382Z,36.20
2024-01-11T23:13:46.814Z,39.15
2024-01-11T23:16:15.725Z,38.83
2024-01-11T23:18:46.045Z,32.97
2024-01-11T23:21:14.648Z,33.83
2024-01-11T23:23:43.030Z,37.55
2024-01-11T23:26:12.828Z,32.15
2024-01-11T23:28:41.256Z,29.65
2024-01-11T23:31:10.056Z,32.05
2024-01-11T23:33:38.551Z,33.38
2024-01-11T23:36:07.744Z,33.70
2024-01-11T23:38:36.109Z,36.78
2024-01-11T23:41:04.636Z,41.97
2024-01-11T23:43:34.464Z,31.48
2024-01-11T23:46:02.933Z,35.78
2024-01-11T23:48:34.217Z,37.90
2024-01-11T23:51:03.025Z,39.83
2024-01-11T23:53:31.804Z,36.80
2024-01-11T23:56:01.611Z,43.78
2024-01-11T23:58:29.957Z,30.33
